sensor_id;sensor_type;location;lat;lon;timestamp;P1;durP1;ratioP1;P2;durP2;ratioP2
46437;SDS011;32137;48.728;9.142;2023-03-11T00:01:50;17.15;;;4.20;;
46437;SDS011;32137;48.728;9.142;2023-03-11T00:04:16;9.82;;;4.22;;
46437;SDS011;32137;48.728;9.142;2023-03-11T00:06:41;9.18;;;3.85;;
46437;SDS011;32137;48.728;9.142;2023-03-11T00:09:07;7.72;;;3.03;;
46437;SDS011;32137;48.728;9.142;2023-03-11T00:11:33;10.30;;;4.00;;
46437;SDS011;32137;48.728;9.142;2023-03-11T00:13:59;9.63;;;3.60;;
46437;SDS011;32137;48.728;9.142;2023-03-11T00:16:24;7.32;;;4.00;;
46437;SDS011;32137;48.728;9.142;2023-03-11T00:18:50;11.88;;;3.70;;
46437;SDS011;32137;48.728;9.142;2023-03-11T00:21:16;9.77;;;3.65;;
46437;SDS011;32137;48.728;9.142;2023-03-11T00:23:42;9.15;;;3.60;;
46437;SDS011;32137;48.728;9.142;2023-03-11T00:26:08;14.63;;;4.55;;
46437;SDS011;32137;48.728;9.142;2023-03-11T00:28:34;14.98;;;5.40;;
46437;SDS011;32137;48.728;9.142;2023-03-11T00:31:00;11.60;;;4.20;;
46437;SDS011;32137;48.728;9.142;2023-03-11T00:33:26;9.52;;;4.03;;
46437;SDS011;32137;48.728;9.142;2023-03-11T00:35:52;10.23;;;4.40;;
46437;SDS011;32137;48.728;9.142;2023-03-11T00:38:17;17.65;;;5.43;;
46437;SDS011;32137;48.728;9.142;2023-03-11T00:40:43;9.30;;;4.68;;
46437;SDS011;32137;48.728;9.142;2023-03-11T00:43:10;36.80;;;11.02;;
46437;SDS011;32137;48.728;9.142;2023-03-11T00:45:35;10.32;;;4.30;;
46437;SDS011;32137;48.728;9.142;2023-03-11T00:48:01;11.48;;;4.82;;
46437;SDS011;32137;48.728;9.142;2023-03-11T00:50:28;12.45;;;4.90;;
46437;SDS011;32137;48.728;9.142;2023-03-11T00:52:55;14.13;;;4.57;;
46437;SDS011;32137;48.728;9.142;2023-03-11T00:55:22;12.68;;;5.10;;
46437;SDS011;32137;48.728;9.142;2023-03-11T00:57:50;11.23;;;4.45;;
46437;SDS011;32137;48.728;9.142;2023-03-11T01:00:20;9.35;;;4.18;;
46437;SDS011;32137;48.728;9.142;2023-03-11T01:02:47;13.13;;;4.90;;
46437;SDS011;32137;48.728;9.142;2023-03-11T01:05:12;16.90;;;4.82;;
46437;SDS011;32137;48.728;9.142;2023-03-11T01:07:38;15.52;;;5.30;;
46437;SDS011;32137;48.728;9.142;2023-03-11T01:10:04;11.65;;;4.80;;
46437;SDS011;32137;48.728;9.142;2023-03-11T01:12:31;10.38;;;5.00;;
46437;SDS011;32137;48.728;9.142;2023-03-11T01:14:57;17.42;;;5.90;;
46437;SDS011;32137;48.728;9.142;2023-03-11T01:17:22;13.85;;;5.88;;
46437;SDS011;32137;48.728;9.142;2023-03-11T01:19:48;12.52;;;5.25;;
46437;SDS011;32137;48.728;9.142;2023-03-11T01:22:14;14.20;;;6.13;;
46437;SDS011;32137;48.728;9.142;2023-03-11T01:24:40;21.52;;;6.38;;
46437;SDS011;32137;48.728;9.142;2023-03-11T01:27:05;19.63;;;6.50;;
46437;SDS011;32137;48.728;9.142;2023-03-11T01:29:34;11.15;;;5.18;;
46437;SDS011;32137;48.728;9.142;2023-03-11T01:31:59;15.00;;;6.28;;
46437;SDS011;32137;48.728;9.142;2023-03-11T01:34:25;14.57;;;5.90;;
46437;SDS011;32137;48.728;9.142;2023-03-11T01:36:50;12.73;;;5.18;;
46437;SDS011;32137;48.728;9.142;2023-03-11T01:39:16;16.52;;;4.88;;
46437;SDS011;32137;48.728;9.142;2023-03-11T01:41:41;11.02;;;4.50;;
46437;SDS011;32137;48.728;9.142;2023-03-11T01:44:09;10.35;;;4.80;;
46437;SDS011;32137;48.728;9.142;2023-03-11T01:46:38;12.27;;;6.15;;
46437;SDS011;32137;48.728;9.142;2023-03-11T01:49:24;12.10;;;5.43;;
46437;SDS011;32137;48.728;9.142;2023-03-11T01:51:51;11.60;;;5.78;;
46437;SDS011;32137;48.728;9.142;2023-03-11T01:54:20;13.30;;;5.38;;
46437;SDS011;32137;48.728;9.142;2023-03-11T01:56:48;13.57;;;6.05;;
46437;SDS011;32137;48.728;9.142;2023-03-11T01:59:16;17.75;;;6.03;;
46437;SDS011;32137;48.728;9.142;2023-03-11T02:01:51;15.93;;;6.18;;
46437;SDS011;32137;48.728;9.142;2023-03-11T02:04:23;19.33;;;5.20;;
46437;SDS011;32137;48.728;9.142;2023-03-11T02:06:50;10.70;;;5.13;;
46437;SDS011;32137;48.728;9.142;2023-03-11T02:09:16;12.57;;;5.32;;
46437;SDS011;32137;48.728;9.142;2023-03-11T02:11:41;12.05;;;5.38;;
46437;SDS011;32137;48.728;9.142;2023-03-11T02:14:07;19.10;;;7.13;;
46437;SDS011;32137;48.728;9.142;2023-03-11T02:16:33;11.40;;;5.20;;
46437;SDS011;32137;48.728;9.142;2023-03-11T02:19:00;12.68;;;4.78;;
46437;SDS011;32137;48.728;9.142;2023-03-11T02:21:33;12.77;;;5.68;;
46437;SDS011;32137;48.728;9.142;2023-03-11T02:24:04;12.35;;;5.22;;
46437;SDS011;32137;48.728;9.142;2023-03-11T02:26:34;16.58;;;5.53;;
46437;SDS011;32137;48.728;9.142;2023-03-11T02:29:07;12.98;;;5.03;;
46437;SDS011;32137;48.728;9.142;2023-03-11T02:31:36;20.35;;;5.47;;
46437;SDS011;32137;48.728;9.142;2023-03-11T02:34:03;12.10;;;5.25;;
46437;SDS011;32137;48.728;9.142;2023-03-11T02:38:58;19.40;;;5.55;;
46437;SDS011;32137;48.728;9.142;2023-03-11T02:41:24;10.80;;;5.30;;
46437;SDS011;32137;48.728;9.142;2023-03-11T02:43:50;8.13;;;4.82;;
46437;SDS011;32137;48.728;9.142;2023-03-11T02:46:16;8.07;;;4.75;;
46437;SDS011;32137;48.728;9.142;2023-03-11T02:48:42;18.77;;;4.85;;
46437;SDS011;32137;48.728;9.142;2023-03-11T02:51:08;9.27;;;5.10;;
46437;SDS011;32137;48.728;9.142;2023-03-11T02:53:45;14.45;;;5.00;;
46437;SDS011;32137;48.728;9.142;2023-03-11T02:56:13;7.80;;;4.90;;
46437;SDS011;32137;48.728;9.142;2023-03-11T02:58:38;9.35;;;4.20;;
46437;SDS011;32137;48.728;9.142;2023-03-11T03:01:04;20.55;;;5.10;;
46437;SDS011;32137;48.728;9.142;2023-03-11T03:03:30;8.65;;;4.07;;
46437;SDS011;32137;48.728;9.142;2023-03-11T03:05:55;11.57;;;4.68;;
46437;SDS011;32137;48.728;9.142;2023-03-11T03:08:21;10.73;;;4.53;;
46437;SDS011;32137;48.728;9.142;2023-03-11T03:10:46;14.95;;;4.15;;
46437;SDS011;32137;48.728;9.142;2023-03-11T03:13:12;14.40;;;4.63;;
46437;SDS011;32137;48.728;9.142;2023-03-11T03:15:37;11.43;;;4.63;;
46437;SDS011;32137;48.728;9.142;2023-03-11T03:18:03;7.80;;;5.20;;
46437;SDS011;32137;48.728;9.142;2023-03-11T03:20:29;12.60;;;4.95;;
46437;SDS011;32137;48.728;9.142;2023-03-11T03:22:54;9.80;;;4.75;;
46437;SDS011;32137;48.728;9.142;2023-03-11T03:25:20;14.10;;;5.55;;
46437;SDS011;32137;48.728;9.142;2023-03-11T03:27:46;9.02;;;4.78;;
46437;SDS011;32137;48.728;9.142;2023-03-11T03:30:12;11.40;;;4.68;;
46437;SDS011;32137;48.728;9.142;2023-03-11T03:32:38;10.32;;;4.55;;
46437;SDS011;32137;48.728;9.142;2023-03-11T03:35:04;11.90;;;4.60;;
46437;SDS011;32137;48.728;9.142;2023-03-11T03:37:31;9.00;;;4.50;;
46437;SDS011;32137;48.728;9.142;2023-03-11T03:39:58;14.82;;;5.63;;
46437;SDS011;32137;48.728;9.142;2023-03-11T03:42:24;10.45;;;5.20;;
46437;SDS011;32137;48.728;9.142;2023-03-11T03:44:50;8.27;;;4.15;;
46437;SDS011;32137;48.728;9.142;2023-03-11T03:47:17;9.43;;;5.03;;
46437;SDS011;32137;48.728;9.142;2023-03-11T03:49:42;11.02;;;4.88;;
46437;SDS011;32137;48.728;9.142;2023-03-11T03:52:08;7.47;;;4.97;;
46437;SDS011;32137;48.728;9.142;2023-03-11T03:54:34;13.23;;;5.43;;
46437;SDS011;32137;48.728;9.142;2023-03-11T03:57:00;8.02;;;4.13;;
46437;SDS011;32137;48.728;9.142;2023-03-11T03:59:26;12.63;;;6.05;;
46437;SDS011;32137;48.728;9.142;2023-03-11T04:01:52;8.95;;;4.88;;
46437;SDS011;32137;48.728;9.142;2023-03-11T04:04:18;20.75;;;4.82;;
46437;SDS011;32137;48.728;9.142;2023-03-11T04:06:43;9.95;;;4.47;;
46437;SDS011;32137;48.728;9.142;2023-03-11T04:09:10;9.00;;;3.92;;
46437;SDS011;32137;48.728;9.142;2023-03-11T04:11:36;15.02;;;4.50;;
46437;SDS011;32137;48.728;9.142;2023-03-11T04:14:02;8.15;;;4.63;;
46437;SDS011;32137;48.728;9.142;2023-03-11T04:16:28;14.93;;;4.78;;
46437;SDS011;32137;48.728;9.142;2023-03-11T04:18:53;11.90;;;5.15;;
46437;SDS011;32137;48.728;9.142;2023-03-11T04:21:19;12.60;;;4.13;;
46437;SDS011;32137;48.728;9.142;2023-03-11T04:23:44;7.47;;;4.55;;
46437;SDS011;32137;48.728;9.142;2023-03-11T04:26:10;11.63;;;4.13;;
46437;SDS011;32137;48.728;9.142;2023-03-11T04:28:36;19.48;;;3.88;;
46437;SDS011;32137;48.728;9.142;2023-03-11T04:31:01;13.35;;;4.68;;
46437;SDS011;32137;48.728;9.142;2023-03-11T04:33:27;9.52;;;3.92;;
46437;SDS011;32137;48.728;9.142;2023-03-11T04:35:52;16.25;;;4.50;;
46437;SDS011;32137;48.728;9.142;2023-03-11T04:38:18;8.20;;;4.38;;
46437;SDS011;32137;48.728;9.142;2023-03-11T04:40:43;10.20;;;4.65;;
46437;SDS011;32137;48.728;9.142;2023-03-11T04:43:09;12.77;;;3.97;;
46437;SDS011;32137;48.728;9.142;2023-03-11T04:45:37;8.70;;;4.38;;
46437;SDS011;32137;48.728;9.142;2023-03-11T04:48:04;14.27;;;4.15;;
46437;SDS011;32137;48.728;9.142;2023-03-11T04:50:29;9.07;;;4.03;;
46437;SDS011;32137;48.728;9.142;2023-03-11T04:52:55;7.03;;;4.10;;
46437;SDS011;32137;48.728;9.142;2023-03-11T04:55:21;13.18;;;4.90;;
46437;SDS011;32137;48.728;9.142;2023-03-11T04:57:46;8.85;;;4.30;;
46437;SDS011;32137;48.728;9.142;2023-03-11T05:00:12;11.15;;;4.78;;
46437;SDS011;32137;48.728;9.142;2023-03-11T05:02:39;17.10;;;4.25;;
46437;SDS011;32137;48.728;9.142;2023-03-11T05:05:06;15.45;;;5.00;;
46437;SDS011;32137;48.728;9.142;2023-03-11T05:07:33;16.13;;;4.72;;
46437;SDS011;32137;48.728;9.142;2023-03-11T05:09:59;7.93;;;5.00;;
46437;SDS011;32137;48.728;9.142;2023-03-11T05:12:25;13.35;;;4.95;;
46437;SDS011;32137;48.728;9.142;2023-03-11T05:14:51;20.60;;;5.43;;
46437;SDS011;32137;48.728;9.142;2023-03-11T05:17:16;20.58;;;6.03;;
46437;SDS011;32137;48.728;9.142;2023-03-11T05:19:43;11.30;;;4.82;;
46437;SDS011;32137;48.728;9.142;2023-03-11T05:22:09;16.05;;;5.25;;
46437;SDS011;32137;48.728;9.142;2023-03-11T05:24:35;25.45;;;6.60;;
46437;SDS011;32137;48.728;9.142;2023-03-11T05:27:01;13.82;;;5.03;;
46437;SDS011;32137;48.728;9.142;2023-03-11T05:29:27;8.80;;;4.25;;
46437;SDS011;32137;48.728;9.142;2023-03-11T05:31:53;17.75;;;5.78;;
46437;SDS011;32137;48.728;9.142;2023-03-11T05:34:18;11.30;;;4.10;;
46437;SDS011;32137;48.728;9.142;2023-03-11T05:36:45;7.97;;;3.55;;
46437;SDS011;32137;48.728;9.142;2023-03-11T05:39:10;10.20;;;4.72;;
46437;SDS011;32137;48.728;9.142;2023-03-11T05:41:36;7.15;;;4.13;;
46437;SDS011;32137;48.728;9.142;2023-03-11T05:44:02;11.98;;;4.45;;
46437;SDS011;32137;48.728;9.142;2023-03-11T05:46:27;9.02;;;4.55;;
46437;SDS011;32137;48.728;9.142;2023-03-11T05:48:53;8.43;;;4.18;;
46437;SDS011;32137;48.728;9.142;2023-03-11T05:51:19;13.27;;;5.25;;
46437;SDS011;32137;48.728;9.142;2023-03-11T05:53:45;12.80;;;5.18;;
46437;SDS011;32137;48.728;9.142;2023-03-11T05:56:15;14.48;;;4.72;;
46437;SDS011;32137;48.728;9.142;2023-03-11T05:58:42;10.30;;;4.00;;
46437;SDS011;32137;48.728;9.142;2023-03-11T06:01:08;10.32;;;3.83;;
46437;SDS011;32137;48.728;9.142;2023-03-11T06:03:35;10.88;;;3.83;;
46437;SDS011;32137;48.728;9.142;2023-03-11T06:06:01;7.05;;;4.10;;
46437;SDS011;32137;48.728;9.142;2023-03-11T06:08:28;6.97;;;4.40;;
46437;SDS011;32137;48.728;9.142;2023-03-11T06:10:59;8.00;;;4.47;;
46437;SDS011;32137;48.728;9.142;2023-03-11T06:13:29;10.65;;;3.95;;
46437;SDS011;32137;48.728;9.142;2023-03-11T06:15:55;6.82;;;4.15;;
46437;SDS011;32137;48.728;9.142;2023-03-11T06:18:20;9.23;;;5.53;;
46437;SDS011;32137;48.728;9.142;2023-03-11T06:20:46;14.45;;;6.40;;
46437;SDS011;32137;48.728;9.142;2023-03-11T06:23:11;9.00;;;3.70;;
46437;SDS011;32137;48.728;9.142;2023-03-11T06:25:37;10.32;;;4.38;;
46437;SDS011;32137;48.728;9.142;2023-03-11T06:28:02;8.75;;;3.28;;
46437;SDS011;32137;48.728;9.142;2023-03-11T06:30:28;14.70;;;4.10;;
46437;SDS011;32137;48.728;9.142;2023-03-11T06:32:54;7.80;;;4.13;;
46437;SDS011;32137;48.728;9.142;2023-03-11T06:35:20;8.40;;;3.90;;
46437;SDS011;32137;48.728;9.142;2023-03-11T06:37:45;11.05;;;4.97;;
46437;SDS011;32137;48.728;9.142;2023-03-11T06:40:11;8.55;;;4.05;;
46437;SDS011;32137;48.728;9.142;2023-03-11T06:42:37;17.13;;;4.22;;
46437;SDS011;32137;48.728;9.142;2023-03-11T06:45:03;7.07;;;3.97;;
46437;SDS011;32137;48.728;9.142;2023-03-11T06:47:30;15.63;;;3.88;;
46437;SDS011;32137;48.728;9.142;2023-03-11T06:49:55;7.93;;;3.53;;
46437;SDS011;32137;48.728;9.142;2023-03-11T06:52:21;9.80;;;4.50;;
46437;SDS011;32137;48.728;9.142;2023-03-11T06:54:46;10.77;;;4.20;;
46437;SDS011;32137;48.728;9.142;2023-03-11T06:57:12;27.85;;;4.80;;
46437;SDS011;32137;48.728;9.142;2023-03-11T06:59:37;10.45;;;4.30;;
46437;SDS011;32137;48.728;9.142;2023-03-11T07:02:03;12.85;;;3.95;;
46437;SDS011;32137;48.728;9.142;2023-03-11T07:04:30;10.65;;;5.05;;
46437;SDS011;32137;48.728;9.142;2023-03-11T07:06:56;7.22;;;3.13;;
46437;SDS011;32137;48.728;9.142;2023-03-11T07:09:22;16.80;;;4.78;;
46437;SDS011;32137;48.728;9.142;2023-03-11T07:11:49;13.45;;;4.15;;
46437;SDS011;32137;48.728;9.142;2023-03-11T07:14:15;13.20;;;3.55;;
46437;SDS011;32137;48.728;9.142;2023-03-11T07:16:42;13.98;;;4.05;;
46437;SDS011;32137;48.728;9.142;2023-03-11T07:19:09;13.05;;;2.70;;
46437;SDS011;32137;48.728;9.142;2023-03-11T07:21:36;8.38;;;3.40;;
46437;SDS011;32137;48.728;9.142;2023-03-11T07:24:02;8.10;;;2.90;;
46437;SDS011;32137;48.728;9.142;2023-03-11T07:26:29;8.23;;;2.88;;
46437;SDS011;32137;48.728;9.142;2023-03-11T07:28:56;6.47;;;2.70;;
46437;SDS011;32137;48.728;9.142;2023-03-11T07:31:26;11.02;;;3.83;;
46437;SDS011;32137;48.728;9.142;2023-03-11T07:33:53;9.82;;;3.00;;
46437;SDS011;32137;48.728;9.142;2023-03-11T07:36:22;14.52;;;3.83;;
46437;SDS011;32137;48.728;9.142;2023-03-11T07:38:53;13.25;;;3.03;;
46437;SDS011;32137;48.728;9.142;2023-03-11T07:41:28;11.48;;;3.08;;
46437;SDS011;32137;48.728;9.142;2023-03-11T07:43:56;13.60;;;3.10;;
46437;SDS011;32137;48.728;9.142;2023-03-11T07:46:23;7.25;;;2.83;;
46437;SDS011;32137;48.728;9.142;2023-03-11T07:48:50;12.18;;;4.00;;
46437;SDS011;32137;48.728;9.142;2023-03-11T07:51:20;7.07;;;2.85;;
46437;SDS011;32137;48.728;9.142;2023-03-11T07:53:48;5.57;;;3.00;;
46437;SDS011;32137;48.728;9.142;2023-03-11T07:56:16;10.18;;;2.85;;
46437;SDS011;32137;48.728;9.142;2023-03-11T07:58:43;14.00;;;2.55;;
46437;SDS011;32137;48.728;9.142;2023-03-11T08:01:13;7.07;;;2.60;;
46437;SDS011;32137;48.728;9.142;2023-03-11T08:03:41;6.25;;;2.45;;
46437;SDS011;32137;48.728;9.142;2023-03-11T08:06:20;14.10;;;3.22;;
46437;SDS011;32137;48.728;9.142;2023-03-11T08:08:48;9.65;;;2.88;;
46437;SDS011;32137;48.728;9.142;2023-03-11T08:11:14;6.15;;;2.25;;
46437;SDS011;32137;48.728;9.142;2023-03-11T08:13:40;6.70;;;3.20;;
46437;SDS011;32137;48.728;9.142;2023-03-11T08:16:08;8.13;;;2.35;;
46437;SDS011;32137;48.728;9.142;2023-03-11T08:18:34;10.60;;;2.20;;
46437;SDS011;32137;48.728;9.142;2023-03-11T08:21:04;3.70;;;2.45;;
46437;SDS011;32137;48.728;9.142;2023-03-11T08:23:32;11.00;;;3.28;;
46437;SDS011;32137;48.728;9.142;2023-03-11T08:25:57;8.88;;;2.53;;
46437;SDS011;32137;48.728;9.142;2023-03-11T08:28:23;5.43;;;2.05;;
46437;SDS011;32137;48.728;9.142;2023-03-11T08:30:49;7.05;;;2.78;;
46437;SDS011;32137;48.728;9.142;2023-03-11T08:33:14;4.90;;;1.90;;
46437;SDS011;32137;48.728;9.142;2023-03-11T08:35:40;11.27;;;3.63;;
46437;SDS011;32137;48.728;9.142;2023-03-11T08:38:05;7.22;;;3.20;;
46437;SDS011;32137;48.728;9.142;2023-03-11T08:40:31;8.98;;;2.47;;
46437;SDS011;32137;48.728;9.142;2023-03-11T08:42:56;4.95;;;1.80;;
46437;SDS011;32137;48.728;9.142;2023-03-11T08:45:22;4.60;;;2.70;;
46437;SDS011;32137;48.728;9.142;2023-03-11T08:47:47;4.70;;;1.88;;
46437;SDS011;32137;48.728;9.142;2023-03-11T08:50:14;7.20;;;2.97;;
46437;SDS011;32137;48.728;9.142;2023-03-11T08:52:41;14.18;;;2.13;;
46437;SDS011;32137;48.728;9.142;2023-03-11T08:55:07;4.57;;;1.75;;
46437;SDS011;32137;48.728;9.142;2023-03-11T08:57:35;10.60;;;2.38;;
46437;SDS011;32137;48.728;9.142;2023-03-11T09:00:02;16.30;;;2.22;;
46437;SDS011;32137;48.728;9.142;2023-03-11T09:02:29;4.90;;;1.80;;
46437;SDS011;32137;48.728;9.142;2023-03-11T09:04:55;5.45;;;2.22;;
46437;SDS011;32137;48.728;9.142;2023-03-11T09:07:20;4.55;;;1.75;;
46437;SDS011;32137;48.728;9.142;2023-03-11T09:09:46;7.72;;;2.13;;
46437;SDS011;32137;48.728;9.142;2023-03-11T09:12:11;9.95;;;2.65;;
46437;SDS011;32137;48.728;9.142;2023-03-11T09:14:38;5.22;;;1.63;;
46437;SDS011;32137;48.728;9.142;2023-03-11T09:17:05;3.63;;;2.08;;
46437;SDS011;32137;48.728;9.142;2023-03-11T09:19:31;3.95;;;1.30;;
46437;SDS011;32137;48.728;9.142;2023-03-11T09:22:01;5.68;;;3.22;;
46437;SDS011;32137;48.728;9.142;2023-03-11T09:24:27;4.82;;;2.08;;
46437;SDS011;32137;48.728;9.142;2023-03-11T09:26:53;8.88;;;2.33;;
46437;SDS011;32137;48.728;9.142;2023-03-11T09:29:18;3.42;;;1.00;;
46437;SDS011;32137;48.728;9.142;2023-03-11T09:31:44;5.65;;;2.47;;
46437;SDS011;32137;48.728;9.142;2023-03-11T09:34:11;12.13;;;1.20;;
46437;SDS011;32137;48.728;9.142;2023-03-11T09:36:39;3.50;;;1.25;;
46437;SDS011;32137;48.728;9.142;2023-03-11T09:39:05;8.25;;;1.48;;
46437;SDS011;32137;48.728;9.142;2023-03-11T09:41:33;5.47;;;1.35;;
46437;SDS011;32137;48.728;9.142;2023-03-11T09:44:17;3.53;;;1.25;;
46437;SDS011;32137;48.728;9.142;2023-03-11T09:49:42;6.38;;;1.63;;
46437;SDS011;32137;48.728;9.142;2023-03-11T09:52:14;3.85;;;1.13;;
46437;SDS011;32137;48.728;9.142;2023-03-11T09:54:44;2.75;;;1.45;;
46437;SDS011;32137;48.728;9.142;2023-03-11T09:57:16;3.97;;;1.90;;
46437;SDS011;32137;48.728;9.142;2023-03-11T09:59:52;3.92;;;1.75;;
46437;SDS011;32137;48.728;9.142;2023-03-11T10:02:20;8.45;;;1.73;;
46437;SDS011;32137;48.728;9.142;2023-03-11T10:07:16;3.45;;;1.90;;
46437;SDS011;32137;48.728;9.142;2023-03-11T10:09:52;1.67;;;1.35;;
46437;SDS011;32137;48.728;9.142;2023-03-11T10:12:36;2.58;;;1.40;;
46437;SDS011;32137;48.728;9.142;2023-03-11T10:26:26;5.55;;;1.33;;
46437;SDS011;32137;48.728;9.142;2023-03-11T10:31:41;5.25;;;1.40;;
46437;SDS011;32137;48.728;9.142;2023-03-11T10:34:14;3.15;;;1.38;;
46437;SDS011;32137;48.728;9.142;2023-03-11T10:36:56;5.53;;;1.50;;
46437;SDS011;32137;48.728;9.142;2023-03-11T10:39:32;8.48;;;1.40;;
46437;SDS011;32137;48.728;9.142;2023-03-11T10:42:01;4.55;;;1.63;;
46437;SDS011;32137;48.728;9.142;2023-03-11T10:44:33;6.88;;;2.08;;
46437;SDS011;32137;48.728;9.142;2023-03-11T10:47:00;2.88;;;1.30;;
46437;SDS011;32137;48.728;9.142;2023-03-11T10:49:27;4.32;;;1.70;;
46437;SDS011;32137;48.728;9.142;2023-03-11T10:51:53;6.85;;;1.75;;
46437;SDS011;32137;48.728;9.142;2023-03-11T10:56:59;6.82;;;2.58;;
46437;SDS011;32137;48.728;9.142;2023-03-11T10:59:28;3.78;;;1.20;;
46437;SDS011;32137;48.728;9.142;2023-03-11T11:01:57;2.08;;;1.45;;
46437;SDS011;32137;48.728;9.142;2023-03-11T11:04:38;2.42;;;1.35;;
46437;SDS011;32137;48.728;9.142;2023-03-11T11:07:18;5.45;;;1.30;;
46437;SDS011;32137;48.728;9.142;2023-03-11T11:10:14;2.90;;;0.95;;
46437;SDS011;32137;48.728;9.142;2023-03-11T11:15:24;7.70;;;2.22;;
46437;SDS011;32137;48.728;9.142;2023-03-11T11:17:53;3.22;;;1.33;;
46437;SDS011;32137;48.728;9.142;2023-03-11T11:20:22;3.70;;;1.50;;
46437;SDS011;32137;48.728;9.142;2023-03-11T11:22:53;4.57;;;1.50;;
46437;SDS011;32137;48.728;9.142;2023-03-11T11:27:55;6.93;;;1.63;;
46437;SDS011;32137;48.728;9.142;2023-03-11T11:30:23;2.55;;;1.45;;
46437;SDS011;32137;48.728;9.142;2023-03-11T11:32:53;5.97;;;1.40;;
46437;SDS011;32137;48.728;9.142;2023-03-11T11:35:20;3.45;;;1.40;;
46437;SDS011;32137;48.728;9.142;2023-03-11T11:43:24;9.75;;;1.80;;
46437;SDS011;32137;48.728;9.142;2023-03-11T11:45:52;23.95;;;10.07;;
46437;SDS011;32137;48.728;9.142;2023-03-11T11:51:07;6.95;;;1.35;;
46437;SDS011;32137;48.728;9.142;2023-03-11T11:56:16;5.82;;;1.30;;
46437;SDS011;32137;48.728;9.142;2023-03-11T11:58:41;2.15;;;1.10;;
46437;SDS011;32137;48.728;9.142;2023-03-11T12:03:55;3.47;;;1.50;;
46437;SDS011;32137;48.728;9.142;2023-03-11T12:06:39;5.72;;;1.52;;
46437;SDS011;32137;48.728;9.142;2023-03-11T12:14:24;3.05;;;1.35;;
46437;SDS011;32137;48.728;9.142;2023-03-11T12:17:00;4.40;;;1.38;;
46437;SDS011;32137;48.728;9.142;2023-03-11T12:25:37;6.03;;;1.10;;
46437;SDS011;32137;48.728;9.142;2023-03-11T12:27:47;3.72;;;1.60;;
46437;SDS011;32137;48.728;9.142;2023-03-11T12:30:26;3.08;;;1.25;;
46437;SDS011;32137;48.728;9.142;2023-03-11T12:33:04;2.47;;;1.20;;
46437;SDS011;32137;48.728;9.142;2023-03-11T12:35:33;5.80;;;2.47;;
46437;SDS011;32137;48.728;9.142;2023-03-11T12:45:54;1.77;;;0.98;;
46437;SDS011;32137;48.728;9.142;2023-03-11T12:50:59;3.50;;;1.00;;
46437;SDS011;32137;48.728;9.142;2023-03-11T12:59:13;2.70;;;1.65;;
46437;SDS011;32137;48.728;9.142;2023-03-11T13:15:18;3.15;;;1.58;;
46437;SDS011;32137;48.728;9.142;2023-03-11T13:33:50;3.50;;;1.23;;
46437;SDS011;32137;48.728;9.142;2023-03-11T13:44:51;9.45;;;1.20;;
46437;SDS011;32137;48.728;9.142;2023-03-11T13:47:17;6.63;;;1.98;;
46437;SDS011;32137;48.728;9.142;2023-03-11T13:52:48;3.67;;;1.38;;
46437;SDS011;32137;48.728;9.142;2023-03-11T13:55:21;3.58;;;1.27;;
46437;SDS011;32137;48.728;9.142;2023-03-11T13:57:55;6.95;;;1.50;;
46437;SDS011;32137;48.728;9.142;2023-03-11T14:00:22;3.40;;;1.40;;
46437;SDS011;32137;48.728;9.142;2023-03-11T14:05:21;4.88;;;1.25;;
46437;SDS011;32137;48.728;9.142;2023-03-11T14:08:30;3.38;;;0.93;;
46437;SDS011;32137;48.728;9.142;2023-03-11T14:11:01;18.38;;;9.98;;
46437;SDS011;32137;48.728;9.142;2023-03-11T14:13:38;5.28;;;2.13;;
46437;SDS011;32137;48.728;9.142;2023-03-11T14:19:01;3.50;;;1.23;;
46437;SDS011;32137;48.728;9.142;2023-03-11T14:21:31;3.15;;;1.38;;
46437;SDS011;32137;48.728;9.142;2023-03-11T14:23:57;4.80;;;1.40;;
46437;SDS011;32137;48.728;9.142;2023-03-11T14:26:25;3.35;;;1.40;;
46437;SDS011;32137;48.728;9.142;2023-03-11T14:28:55;2.17;;;1.17;;
46437;SDS011;32137;48.728;9.142;2023-03-11T14:34:02;4.00;;;1.08;;
46437;SDS011;32137;48.728;9.142;2023-03-11T14:36:47;3.30;;;1.25;;
46437;SDS011;32137;48.728;9.142;2023-03-11T14:39:29;3.25;;;1.50;;
46437;SDS011;32137;48.728;9.142;2023-03-11T14:47:46;6.20;;;1.98;;
46437;SDS011;32137;48.728;9.142;2023-03-11T14:50:20;5.45;;;1.90;;
46437;SDS011;32137;48.728;9.142;2023-03-11T14:52:58;5.93;;;1.83;;
46437;SDS011;32137;48.728;9.142;2023-03-11T14:58:29;2.78;;;1.30;;
46437;SDS011;32137;48.728;9.142;2023-03-11T15:01:07;4.25;;;1.75;;
46437;SDS011;32137;48.728;9.142;2023-03-11T15:06:27;6.45;;;1.98;;
46437;SDS011;32137;48.728;9.142;2023-03-11T15:08:56;4.95;;;1.85;;
46437;SDS011;32137;48.728;9.142;2023-03-11T15:11:27;7.70;;;1.77;;
46437;SDS011;32137;48.728;9.142;2023-03-11T15:13:54;8.02;;;1.80;;
46437;SDS011;32137;48.728;9.142;2023-03-11T15:16:44;4.88;;;1.30;;
46437;SDS011;32137;48.728;9.142;2023-03-11T15:19:19;3.25;;;1.77;;
46437;SDS011;32137;48.728;9.142;2023-03-11T15:21:47;2.17;;;1.50;;
46437;SDS011;32137;48.728;9.142;2023-03-11T15:24:18;7.40;;;2.10;;
46437;SDS011;32137;48.728;9.142;2023-03-11T15:29:20;5.35;;;1.85;;
46437;SDS011;32137;48.728;9.142;2023-03-11T15:31:46;3.42;;;1.60;;
46437;SDS011;32137;48.728;9.142;2023-03-11T15:36:43;5.20;;;1.25;;
46437;SDS011;32137;48.728;9.142;2023-03-11T15:39:14;5.28;;;2.03;;
46437;SDS011;32137;48.728;9.142;2023-03-11T15:41:47;4.20;;;1.58;;
46437;SDS011;32137;48.728;9.142;2023-03-11T15:47:18;4.22;;;2.20;;
46437;SDS011;32137;48.728;9.142;2023-03-11T15:49:45;4.28;;;2.35;;
46437;SDS011;32137;48.728;9.142;2023-03-11T15:52:11;6.05;;;1.80;;
46437;SDS011;32137;48.728;9.142;2023-03-11T15:54:37;3.88;;;1.63;;
46437;SDS011;32137;48.728;9.142;2023-03-11T15:57:14;3.50;;;1.80;;
46437;SDS011;32137;48.728;9.142;2023-03-11T15:59:46;3.35;;;1.60;;
46437;SDS011;32137;48.728;9.142;2023-03-11T16:02:26;5.05;;;2.55;;
46437;SDS011;32137;48.728;9.142;2023-03-11T16:04:53;4.30;;;1.83;;
46437;SDS011;32137;48.728;9.142;2023-03-11T16:07:19;5.18;;;2.20;;
46437;SDS011;32137;48.728;9.142;2023-03-11T16:09:45;8.98;;;2.40;;
46437;SDS011;32137;48.728;9.142;2023-03-11T16:12:18;16.05;;;3.50;;
46437;SDS011;32137;48.728;9.142;2023-03-11T16:14:45;7.45;;;2.70;;
46437;SDS011;32137;48.728;9.142;2023-03-11T16:17:12;7.30;;;3.50;;
46437;SDS011;32137;48.728;9.142;2023-03-11T16:19:40;4.97;;;2.03;;
46437;SDS011;32137;48.728;9.142;2023-03-11T16:22:19;7.03;;;3.25;;
46437;SDS011;32137;48.728;9.142;2023-03-11T16:24:48;5.78;;;1.80;;
46437;SDS011;32137;48.728;9.142;2023-03-11T16:27:16;9.15;;;1.95;;
46437;SDS011;32137;48.728;9.142;2023-03-11T16:29:43;3.80;;;1.73;;
46437;SDS011;32137;48.728;9.142;2023-03-11T16:32:09;6.68;;;1.65;;
46437;SDS011;32137;48.728;9.142;2023-03-11T16:34:35;9.60;;;2.75;;
46437;SDS011;32137;48.728;9.142;2023-03-11T16:37:03;5.28;;;1.58;;
46437;SDS011;32137;48.728;9.142;2023-03-11T16:39:30;9.02;;;1.98;;
46437;SDS011;32137;48.728;9.142;2023-03-11T16:41:56;8.23;;;1.85;;
46437;SDS011;32137;48.728;9.142;2023-03-11T16:44:21;8.48;;;1.60;;
46437;SDS011;32137;48.728;9.142;2023-03-11T16:46:47;5.43;;;2.22;;
46437;SDS011;32137;48.728;9.142;2023-03-11T16:49:13;4.78;;;1.52;;
46437;SDS011;32137;48.728;9.142;2023-03-11T16:51:38;10.43;;;3.92;;
46437;SDS011;32137;48.728;9.142;2023-03-11T16:54:04;18.83;;;8.43;;
46437;SDS011;32137;48.728;9.142;2023-03-11T16:56:29;12.63;;;4.03;;
46437;SDS011;32137;48.728;9.142;2023-03-11T16:58:55;5.18;;;2.35;;
46437;SDS011;32137;48.728;9.142;2023-03-11T17:01:20;9.25;;;3.55;;
46437;SDS011;32137;48.728;9.142;2023-03-11T17:03:46;7.45;;;2.00;;
46437;SDS011;32137;48.728;9.142;2023-03-11T17:06:14;6.40;;;1.70;;
46437;SDS011;32137;48.728;9.142;2023-03-11T17:08:41;5.60;;;1.98;;